Westborough, MA (01580)

4:07 AM EDT on July 31, 2016 (GMT -0400)
| | Change Station

Elev -9999 ft 0.00 °N, 0.00 °E | Updated

Rain
Rain
68 °F
Feels Like 68 °F
N
5
Wind Variable Wind from NNE
Gusts mph

Today
High -- | Low -- °F
--% Chance of Precip.
Yesterday
High -- | Low -- °F
Precip. -- in
Pressure 30.05 in
Visibility 10.0 miles
Clouds Mostly Cloudy 11000 ft
Dew Point 66 °F
Humidity 92%
Rainfall --
Snow Depth Not available.
5:38 AM 8:06 PM
Waning Crescent, 8% visible
METAR KORH 310754Z AUTO 00000KT 10SM BKN110 21/18 A3006 RMK AO2 SLP175 T02060183
Pressure 30.05 in
Visibility 10.0 miles
Clouds Mostly Cloudy 11000 ft
Dew Point 66 °F
Humidity 92%
Rainfall --
Snow Depth Not available.
5:38 AM 8:06 PM
Waning Crescent, 8% visible
METAR KORH 310754Z AUTO 00000KT 10SM BKN110 21/18 A3006 RMK AO2 SLP175 T02060183

10-Day Weather Forecast

Almanac

Astronomy

Jul. 31, 2016 Rise Set
Actual Time
Civil Twilight
Nautical Twilight
Astronomical Twilight
Moon
Length of Visible Light
Length of Day
Tomorrow will be .
, % of the Moon is Illuminated

Today's Extremes

State Highs State Lows

Community

WunderPhotos

Upload Photos

1,928,768 photos uploaded!

WunderBlog® & News

Nearby

Air Quality

  Air Quality AQ Index Pollutant
Not available.

Snow Depth

Station Depth Elevation

Earthquake Activity

City Distance Mag. Time & Date
Minimum magnitude displayed is 2.5.

Coastal Water Temperatures

Place Temperature

Stations

Nearby Weather Stations

Station Location Temp. Windchill Dew Point Humidity Wind Precip. Elev Updated Type
                   

Watches & Warnings

There are currently no watches in effect.